• 1385014 10153382300060425 128216538 n
  • 3
  • 6
  • 7
  • 1
  • 10
  • 未命名
  • 121
  • 55
  • 2
  • cargo

Click here and log in to see your monthly flight duties. 請按此登入個人班表區

Welcome aboard

Current Weather

[source: ADDS]
METAR
RCTP 251700Z 06003KT 350V150 9999 FEW020 SCT060 BKN110 16/14 Q1020 NOSIG RMK A3014 =
TAF
TAF RCTP 251700Z 2518/2624 34004KT 8000 FEW015 BKN032 BKN060 TEMPO 2518/2524 02003KT 2400 RA BR SCT006 BKN012 BKN030 BECMG 2600/2602 03014KT SCT008 BKN015 BKN035 TEMPO 2602/2808 04016G26KT 3200 RA BR BECMG 2610/2612 FEW010 BKN025 BKN045 TEMPO 2616/2622 4000 RA BR SCT008 BKN015 BKN030 =